Activities

IESA Fee Schedule
2021-2022 IESA Membership Dues

  • Annual Membership dues of $300.00 must be paid.

  • If the NFHS publishes a rule book for the sports you entered, you will automatically receive a copy of that rule book.
2021-2022 Athletics Dates and Fees
Activity Postmarked
Entry Date & Fees
Final Postmarked
Entry Date & Fees
2021 Boys Golf (per individual) To 6/7/2021 - $40.00 6/17/2021 to 8/20/2021 - $80.00 -Double Fees
2021 Girls Golf (per individual) To 6/7/2021 - $40.00 6/17/2021 to 8/20/2021 - $80.00 -Double Fees
2021 Girls Softball To 6/7/2021 - $65.00 6/17/2021 to 7/1/2021 - $130.00 -Double Fees
2021 Boys Baseball To 6/7/2021 - $65.00 6/17/2021 to 7/1/2021 - $130.00 -Double Fees
2021 Boys Cross-Country To 6/7/2021 - $100.00 6/17/2021 to 8/1/2021 - $200.00 -Double Fees
2021 Girls Cross-Country To 6/7/2021 - $100.00 6/17/2021 to 8/1/2021 - $200.00 -Double Fees
2021 Girls 7th Grade Basketball To 6/7/2021 - $65.00 6/17/2021 to 8/1/2021 - $130.00 -Double Fees
2021 Girls 8th Grade Basketball To 6/7/2021 - $65.00 6/17/2021 to 8/1/2021 - $130.00 -Double Fees
2022 Boys 7th Grade Basketball To 6/7/2021 - $65.00 6/17/2021 to 9/1/2021 - $130.00 -Double Fees
2022 Boys 8th Grade Basketball To 6/7/2021 - $65.00 6/17/2021 to 9/1/2021 - $130.00 -Double Fees
2022 Boys Wrestling To 10/4/2021 - $65.00 10/14/2021 to 11/1/2021 - $130.00 -Double Fees
2022 Girls 7th Grade Volleyball To 10/4/2021 - $65.00 10/14/2021 to 10/15/2021 - $130.00 -Double Fees
2022 Girls 8th Grade Volleyball To 10/4/2021 - $65.00 10/14/2021 to 10/15/2021 - $130.00 -Double Fees
2022 Boys Bowling (per individual) To 1/14/2022 - $20.00 1/16/2022 to 1/26/2022 - $40.00 -Double Fees
2022 Girls Bowling (per individual) To 1/14/2022 - $20.00 1/16/2022 to 1/26/2022 - $40.00 -Double Fees
2022 Boys 7th Grade Track & Field To 10/4/2021 - $70.00 10/14/2021 to 11/1/2021 - $140.00 -Double Fees
2022 Boys 8th Grade Track & Field To 10/4/2021 - $70.00 10/14/2021 to 11/1/2021 - $140.00 -Double Fees
2022 Girls 7th Grade Track & Field To 10/4/2021 - $70.00 10/14/2021 to 11/1/2021 - $140.00 -Double Fees
2022 Girls 8th Grade Track & Field To 10/4/2021 - $70.00 10/14/2021 to 11/1/2021 - $140.00 -Double Fees
2021-2022 Activity Dates and Fees
Activity Postmarked
Entry Date & Fees
Final Postmarked
Entry Date & Fees
2022 Cheerleading To 11/17/2021 - $75.00 11/27/2021 to 12/1/2021 - $150.00 -Double Fees
2022 6th Grade Chess (per individual) To 1/26/2022 - $15.00 2/5/2022 to 2/11/2022 - $30.00 -Double Fees
2022 7th Grade Chess (per individual) To 1/26/2022 - $15.00 2/5/2022 to 2/11/2022 - $30.00 -Double Fees
2022 8th Grade Chess (per individual) To 1/26/2022 - $15.00 2/5/2022 to 2/11/2022 - $30.00 -Double Fees
2022 Scholastic Bowl To 10/4/2021 - $65.00 10/14/2021 to 11/1/2021 - $130.00 -Double Fees
Music - Organization
2022 Orchestra (no minimum) To 2/3/2022 - $65.00 2/13/2022 to 3/9/2022 - $130.00 -Double Fees
2022 Choir Chimes or Handbells (11+) To 2/3/2022 - $65.00 2/13/2022 to 3/9/2022 - $130.00 -Double Fees
2022 Jazz Band (9+) To 2/3/2022 - $65.00 2/13/2022 to 3/9/2022 - $130.00 -Double Fees
2022 Jazz Choir (8+) To 2/3/2022 - $65.00 2/13/2022 to 3/9/2022 - $130.00 -Double Fees
2022 Concert Band (no minimum) To 2/3/2022 - $65.00 2/13/2022 to 3/9/2022 - $130.00 -Double Fees
2022 Show Choir (12+) To 2/3/2022 - $65.00 2/13/2022 to 3/9/2022 - $130.00 -Double Fees
2022 Chorus (no minimum) To 2/3/2022 - $65.00 2/13/2022 to 3/9/2022 - $130.00 -Double Fees
Music - Solo & Ensemble
2022 Choir Chime or Handbell Ensemble (2-5) To 2/3/2022 - $15.00  
2022 Piano Duet To 2/3/2022 - $15.00  
2022 String Ensemble (2-5) To 2/3/2022 - $15.00  
2022 Mixed Instrumental Ensemble (2-5) To 2/3/2022 - $15.00  
2022 Percussion Ensemble (2-5) To 2/3/2022 - $15.00  
2022 Woodwind Ensemble (2-5) To 2/3/2022 - $15.00  
2022 Brass Ensemble (2-5) To 2/3/2022 - $15.00  
2022 Vocal Ensemble (2-8) To 2/3/2022 - $15.00  
2022 Piano Solo To 2/3/2022 - $8.00  
2022 String Solo To 2/3/2022 - $8.00  
2022 Percussion Solo To 2/3/2022 - $8.00  
2022 Brass Solo To 2/3/2022 - $8.00  
2022 Woodwind Solo To 2/3/2022 - $8.00  
2022 Vocal Solo To 2/3/2022 - $8.00  
2022 Choir Chime or Handbell Choir (6-16) To 2/3/2022 - $27.00  
2022 String Choir (6-16) To 2/3/2022 - $27.00  
2022 Instrumental Choir (6-16) To 2/3/2022 - $27.00  
2022 Vocal Choir (9-16) To 2/3/2022 - $27.00  
Speech - Individual Events
2021 Solo Acting To 9/27/2021 - $5.00 10/2/2021 to 10/7/2021 - $10.00 -Double Fees
2021 Poetry To 9/27/2021 - $5.00 10/2/2021 to 10/7/2021 - $10.00 -Double Fees
2021 Impromptu Individual Speaking To 9/27/2021 - $5.00 10/2/2021 to 10/7/2021 - $10.00 -Double Fees
2021 Original Script-Individual To 9/27/2021 - $5.00 10/2/2021 to 10/7/2021 - $10.00 -Double Fees
2021 Storytelling To 9/27/2021 - $5.00 10/2/2021 to 10/7/2021 - $10.00 -Double Fees
Speech - Duet Events
2021 Regular Duet Acting To 9/27/2021 - $10.00 10/2/2021 to 10/7/2021 - $20.00 -Double Fees
2021 Improv Duet Acting To 9/27/2021 - $10.00 10/2/2021 to 10/7/2021 - $20.00 -Double Fees
2021 Original Script-Duet To 9/27/2021 - $10.00 10/2/2021 to 10/7/2021 - $20.00 -Double Fees
Speech - Small Group Events
2021 Small Group Acting (3-5) To 9/27/2021 - $15.00 10/2/2021 to 10/7/2021 - $30.00 -Double Fees
2021 Team Improv (4-6) To 9/27/2021 - $15.00 10/2/2021 to 10/7/2021 - $30.00 -Double Fees
Speech - Chorale
2021 Chorale (9-20) To 9/27/2021 - $20.00 10/2/2021 to 10/7/2021 - $40.00 -Double Fees
 
  • Entries submitted during the Final Entry Period incur a double entry fee.
  • Double entry fees are waived for schools participating in an activity for the first time.
  • No waivers will be granted for any late entries.
IESA PARTNERS & SPONSORS
Dick's Sporting Goods Event Pro Photography Cubby Hole
A&M Products Run With The Law Slammer Systems Rawlings Human Kinetics Coach Education Center
Royal Publishing
Illinois High School Association IHSA's March Madness Experience Illinois Athletic Directors Association National Federation of State High School Associations NFHS Learning Center
Illinois Elementary School Association
1015 Maple Hill Road, Bloomington, IL 61705
PH: 309-829-0114
FAX: 309-829-0625
Contents © 1999-2022 Illinois Elementary School Association

If you encounter an error message, please contact our webmaster.
Tell us your school, and be as specific as you can about the problem.
Most helpful would any error information listed as part of the error page.